sensor_id;sensor_type;location;lat;lon;timestamp;P1;durP1;ratioP1;P2;durP2;ratioP2
41653;SDS011;68687;52.030;7.110;2024-01-10T00:01:16;14.82;;;5.93;;
41653;SDS011;68687;52.030;7.110;2024-01-10T00:03:42;12.80;;;5.40;;
41653;SDS011;68687;52.030;7.110;2024-01-10T00:06:07;11.80;;;5.00;;
41653;SDS011;68687;52.030;7.110;2024-01-10T00:08:38;14.32;;;6.28;;
41653;SDS011;68687;52.030;7.110;2024-01-10T00:11:10;11.35;;;5.60;;
41653;SDS011;68687;52.030;7.110;2024-01-10T00:13:35;14.23;;;5.45;;
41653;SDS011;68687;52.030;7.110;2024-01-10T00:16:00;14.75;;;5.68;;
41653;SDS011;68687;52.030;7.110;2024-01-10T00:18:26;13.40;;;5.35;;
41653;SDS011;68687;52.030;7.110;2024-01-10T00:20:51;16.63;;;5.70;;
41653;SDS011;68687;52.030;7.110;2024-01-10T00:23:20;9.90;;;4.82;;
41653;SDS011;68687;52.030;7.110;2024-01-10T00:25:46;14.00;;;5.75;;
41653;SDS011;68687;52.030;7.110;2024-01-10T00:28:17;12.32;;;5.05;;
41653;SDS011;68687;52.030;7.110;2024-01-10T00:30:43;15.40;;;6.57;;
41653;SDS011;68687;52.030;7.110;2024-01-10T00:33:09;13.60;;;5.25;;
41653;SDS011;68687;52.030;7.110;2024-01-10T00:35:40;12.75;;;5.30;;
41653;SDS011;68687;52.030;7.110;2024-01-10T00:38:05;11.02;;;4.93;;
41653;SDS011;68687;52.030;7.110;2024-01-10T00:40:30;13.32;;;5.55;;
41653;SDS011;68687;52.030;7.110;2024-01-10T00:42:56;11.40;;;5.20;;
41653;SDS011;68687;52.030;7.110;2024-01-10T00:45:21;15.15;;;5.38;;
41653;SDS011;68687;52.030;7.110;2024-01-10T00:47:48;16.92;;;5.47;;
41653;SDS011;68687;52.030;7.110;2024-01-10T00:50:13;11.73;;;5.40;;
41653;SDS011;68687;52.030;7.110;2024-01-10T00:52:38;15.02;;;6.40;;
41653;SDS011;68687;52.030;7.110;2024-01-10T00:55:07;13.77;;;5.38;;
41653;SDS011;68687;52.030;7.110;2024-01-10T00:57:35;11.90;;;4.72;;
41653;SDS011;68687;52.030;7.110;2024-01-10T01:00:00;12.35;;;5.65;;
41653;SDS011;68687;52.030;7.110;2024-01-10T01:02:29;11.75;;;5.00;;
41653;SDS011;68687;52.030;7.110;2024-01-10T01:04:54;14.27;;;5.10;;
41653;SDS011;68687;52.030;7.110;2024-01-10T01:07:19;10.55;;;5.05;;
41653;SDS011;68687;52.030;7.110;2024-01-10T01:09:45;13.00;;;5.18;;
41653;SDS011;68687;52.030;7.110;2024-01-10T01:12:10;16.70;;;5.55;;
41653;SDS011;68687;52.030;7.110;2024-01-10T01:14:35;11.82;;;4.72;;
41653;SDS011;68687;52.030;7.110;2024-01-10T01:17:00;12.70;;;5.40;;
41653;SDS011;68687;52.030;7.110;2024-01-10T01:19:29;12.32;;;5.07;;
41653;SDS011;68687;52.030;7.110;2024-01-10T01:21:54;13.07;;;5.65;;
41653;SDS011;68687;52.030;7.110;2024-01-10T01:24:19;16.85;;;5.60;;
41653;SDS011;68687;52.030;7.110;2024-01-10T01:26:44;13.02;;;5.28;;
41653;SDS011;68687;52.030;7.110;2024-01-10T01:29:10;18.00;;;6.00;;
41653;SDS011;68687;52.030;7.110;2024-01-10T01:31:35;13.52;;;5.75;;
41653;SDS011;68687;52.030;7.110;2024-01-10T01:34:00;22.63;;;6.35;;
41653;SDS011;68687;52.030;7.110;2024-01-10T01:36:29;16.42;;;5.97;;
41653;SDS011;68687;52.030;7.110;2024-01-10T01:38:54;13.63;;;6.00;;
41653;SDS011;68687;52.030;7.110;2024-01-10T01:41:22;10.63;;;4.88;;
41653;SDS011;68687;52.030;7.110;2024-01-10T01:43:48;11.48;;;5.22;;
41653;SDS011;68687;52.030;7.110;2024-01-10T01:46:13;16.02;;;6.53;;
41653;SDS011;68687;52.030;7.110;2024-01-10T01:48:39;14.95;;;5.05;;
41653;SDS011;68687;52.030;7.110;2024-01-10T01:51:05;14.27;;;6.68;;
41653;SDS011;68687;52.030;7.110;2024-01-10T01:53:33;12.82;;;5.75;;
41653;SDS011;68687;52.030;7.110;2024-01-10T01:56:00;13.48;;;5.38;;
41653;SDS011;68687;52.030;7.110;2024-01-10T01:58:28;17.95;;;5.95;;
41653;SDS011;68687;52.030;7.110;2024-01-10T02:00:54;12.10;;;5.20;;
41653;SDS011;68687;52.030;7.110;2024-01-10T02:03:20;17.00;;;6.55;;
41653;SDS011;68687;52.030;7.110;2024-01-10T02:05:49;12.98;;;6.13;;
41653;SDS011;68687;52.030;7.110;2024-01-10T02:08:15;12.77;;;6.20;;
41653;SDS011;68687;52.030;7.110;2024-01-10T02:10:40;13.55;;;6.13;;
41653;SDS011;68687;52.030;7.110;2024-01-10T02:13:06;13.75;;;5.63;;
41653;SDS011;68687;52.030;7.110;2024-01-10T02:15:33;14.43;;;5.60;;
41653;SDS011;68687;52.030;7.110;2024-01-10T02:17:59;13.70;;;5.57;;
41653;SDS011;68687;52.030;7.110;2024-01-10T02:20:25;14.15;;;5.10;;
41653;SDS011;68687;52.030;7.110;2024-01-10T02:22:50;10.88;;;5.32;;
41653;SDS011;68687;52.030;7.110;2024-01-10T02:25:15;12.68;;;5.43;;
41653;SDS011;68687;52.030;7.110;2024-01-10T02:27:41;18.27;;;5.80;;
41653;SDS011;68687;52.030;7.110;2024-01-10T02:30:06;16.17;;;6.32;;
41653;SDS011;68687;52.030;7.110;2024-01-10T02:32:33;15.15;;;6.40;;
41653;SDS011;68687;52.030;7.110;2024-01-10T02:34:59;13.73;;;5.72;;
41653;SDS011;68687;52.030;7.110;2024-01-10T02:37:27;15.27;;;5.45;;
41653;SDS011;68687;52.030;7.110;2024-01-10T02:39:52;15.27;;;6.40;;
41653;SDS011;68687;52.030;7.110;2024-01-10T02:42:18;11.10;;;6.05;;
41653;SDS011;68687;52.030;7.110;2024-01-10T02:44:43;14.10;;;6.03;;
41653;SDS011;68687;52.030;7.110;2024-01-10T02:47:09;12.30;;;5.93;;
41653;SDS011;68687;52.030;7.110;2024-01-10T02:49:35;15.73;;;6.00;;
41653;SDS011;68687;52.030;7.110;2024-01-10T02:52:00;13.02;;;5.43;;
41653;SDS011;68687;52.030;7.110;2024-01-10T02:54:25;14.95;;;5.40;;
41653;SDS011;68687;52.030;7.110;2024-01-10T02:56:51;17.65;;;6.47;;
41653;SDS011;68687;52.030;7.110;2024-01-10T02:59:16;15.45;;;6.22;;
41653;SDS011;68687;52.030;7.110;2024-01-10T03:01:42;13.35;;;6.07;;
41653;SDS011;68687;52.030;7.110;2024-01-10T03:04:07;15.20;;;6.53;;
41653;SDS011;68687;52.030;7.110;2024-01-10T03:06:33;14.50;;;6.32;;
41653;SDS011;68687;52.030;7.110;2024-01-10T03:08:58;12.90;;;5.90;;
41653;SDS011;68687;52.030;7.110;2024-01-10T03:11:23;14.75;;;6.35;;
41653;SDS011;68687;52.030;7.110;2024-01-10T03:14:00;16.45;;;6.43;;
41653;SDS011;68687;52.030;7.110;2024-01-10T03:16:27;15.98;;;5.90;;
41653;SDS011;68687;52.030;7.110;2024-01-10T03:18:53;13.88;;;5.93;;
41653;SDS011;68687;52.030;7.110;2024-01-10T03:21:21;12.63;;;5.82;;
41653;SDS011;68687;52.030;7.110;2024-01-10T03:23:54;15.05;;;6.20;;
41653;SDS011;68687;52.030;7.110;2024-01-10T03:26:21;14.88;;;6.55;;
41653;SDS011;68687;52.030;7.110;2024-01-10T03:28:46;19.83;;;6.82;;
41653;SDS011;68687;52.030;7.110;2024-01-10T03:31:11;14.73;;;5.78;;
41653;SDS011;68687;52.030;7.110;2024-01-10T03:33:39;14.68;;;6.63;;
41653;SDS011;68687;52.030;7.110;2024-01-10T03:36:06;12.98;;;6.50;;
41653;SDS011;68687;52.030;7.110;2024-01-10T03:38:31;15.93;;;6.30;;
41653;SDS011;68687;52.030;7.110;2024-01-10T03:40:57;17.30;;;6.13;;
41653;SDS011;68687;52.030;7.110;2024-01-10T03:43:22;18.15;;;6.00;;
41653;SDS011;68687;52.030;7.110;2024-01-10T03:45:50;14.45;;;5.97;;
41653;SDS011;68687;52.030;7.110;2024-01-10T03:48:16;11.55;;;5.50;;
41653;SDS011;68687;52.030;7.110;2024-01-10T03:50:41;14.60;;;5.63;;
41653;SDS011;68687;52.030;7.110;2024-01-10T03:53:06;14.65;;;6.35;;
41653;SDS011;68687;52.030;7.110;2024-01-10T03:55:31;14.15;;;5.90;;
41653;SDS011;68687;52.030;7.110;2024-01-10T03:57:57;11.82;;;6.10;;
41653;SDS011;68687;52.030;7.110;2024-01-10T04:00:22;17.10;;;6.25;;
41653;SDS011;68687;52.030;7.110;2024-01-10T04:02:47;17.38;;;6.70;;
41653;SDS011;68687;52.030;7.110;2024-01-10T04:05:13;16.50;;;5.97;;
41653;SDS011;68687;52.030;7.110;2024-01-10T04:07:44;14.90;;;5.97;;
41653;SDS011;68687;52.030;7.110;2024-01-10T04:10:10;15.38;;;5.75;;
41653;SDS011;68687;52.030;7.110;2024-01-10T04:12:39;13.80;;;6.35;;
41653;SDS011;68687;52.030;7.110;2024-01-10T04:15:05;16.70;;;5.53;;
41653;SDS011;68687;52.030;7.110;2024-01-10T04:17:31;14.93;;;6.60;;
41653;SDS011;68687;52.030;7.110;2024-01-10T04:19:57;16.58;;;6.60;;
41653;SDS011;68687;52.030;7.110;2024-01-10T04:22:23;15.30;;;6.20;;
41653;SDS011;68687;52.030;7.110;2024-01-10T04:24:49;14.88;;;6.43;;
41653;SDS011;68687;52.030;7.110;2024-01-10T04:27:14;18.17;;;6.60;;
41653;SDS011;68687;52.030;7.110;2024-01-10T04:29:40;21.25;;;7.50;;
41653;SDS011;68687;52.030;7.110;2024-01-10T04:32:05;15.15;;;6.28;;
41653;SDS011;68687;52.030;7.110;2024-01-10T04:34:31;16.92;;;7.00;;
41653;SDS011;68687;52.030;7.110;2024-01-10T04:36:56;15.75;;;6.80;;
41653;SDS011;68687;52.030;7.110;2024-01-10T04:39:22;16.92;;;6.50;;
41653;SDS011;68687;52.030;7.110;2024-01-10T04:41:47;15.43;;;6.70;;
41653;SDS011;68687;52.030;7.110;2024-01-10T04:44:13;15.90;;;6.50;;
41653;SDS011;68687;52.030;7.110;2024-01-10T04:46:38;15.38;;;6.13;;
41653;SDS011;68687;52.030;7.110;2024-01-10T04:49:04;14.57;;;5.82;;
41653;SDS011;68687;52.030;7.110;2024-01-10T04:51:30;12.07;;;5.85;;
41653;SDS011;68687;52.030;7.110;2024-01-10T04:53:55;11.55;;;5.53;;
41653;SDS011;68687;52.030;7.110;2024-01-10T04:56:20;16.60;;;6.55;;
41653;SDS011;68687;52.030;7.110;2024-01-10T04:58:46;16.08;;;7.03;;
41653;SDS011;68687;52.030;7.110;2024-01-10T05:01:11;16.17;;;6.43;;
41653;SDS011;68687;52.030;7.110;2024-01-10T05:03:36;14.38;;;6.07;;
41653;SDS011;68687;52.030;7.110;2024-01-10T05:06:01;24.73;;;7.15;;
41653;SDS011;68687;52.030;7.110;2024-01-10T05:08:27;13.90;;;6.55;;
41653;SDS011;68687;52.030;7.110;2024-01-10T05:10:52;13.80;;;6.85;;
41653;SDS011;68687;52.030;7.110;2024-01-10T05:13:17;13.57;;;6.07;;
41653;SDS011;68687;52.030;7.110;2024-01-10T05:15:46;16.58;;;6.65;;
41653;SDS011;68687;52.030;7.110;2024-01-10T05:18:11;15.85;;;6.65;;
41653;SDS011;68687;52.030;7.110;2024-01-10T05:20:37;20.08;;;7.00;;
41653;SDS011;68687;52.030;7.110;2024-01-10T05:23:02;17.70;;;7.13;;
41653;SDS011;68687;52.030;7.110;2024-01-10T05:25:27;16.42;;;6.63;;
41653;SDS011;68687;52.030;7.110;2024-01-10T05:27:54;19.42;;;7.25;;
41653;SDS011;68687;52.030;7.110;2024-01-10T05:30:19;17.20;;;7.35;;
41653;SDS011;68687;52.030;7.110;2024-01-10T05:32:44;16.13;;;7.35;;
41653;SDS011;68687;52.030;7.110;2024-01-10T05:35:10;18.20;;;7.07;;
41653;SDS011;68687;52.030;7.110;2024-01-10T05:37:35;17.88;;;8.23;;
41653;SDS011;68687;52.030;7.110;2024-01-10T05:40:01;18.48;;;7.50;;
41653;SDS011;68687;52.030;7.110;2024-01-10T05:42:27;20.80;;;7.90;;
41653;SDS011;68687;52.030;7.110;2024-01-10T05:44:52;17.77;;;7.45;;
41653;SDS011;68687;52.030;7.110;2024-01-10T05:47:18;20.98;;;7.68;;
41653;SDS011;68687;52.030;7.110;2024-01-10T05:49:49;18.17;;;8.13;;
41653;SDS011;68687;52.030;7.110;2024-01-10T05:52:17;18.77;;;8.00;;
41653;SDS011;68687;52.030;7.110;2024-01-10T05:54:42;23.92;;;9.75;;
41653;SDS011;68687;52.030;7.110;2024-01-10T05:57:08;19.48;;;7.00;;
41653;SDS011;68687;52.030;7.110;2024-01-10T05:59:33;16.65;;;7.97;;
41653;SDS011;68687;52.030;7.110;2024-01-10T06:01:58;21.30;;;8.15;;
41653;SDS011;68687;52.030;7.110;2024-01-10T06:04:24;22.52;;;8.57;;
41653;SDS011;68687;52.030;7.110;2024-01-10T06:06:49;22.13;;;8.95;;
41653;SDS011;68687;52.030;7.110;2024-01-10T06:09:18;18.05;;;8.18;;
41653;SDS011;68687;52.030;7.110;2024-01-10T06:11:49;18.40;;;8.52;;
41653;SDS011;68687;52.030;7.110;2024-01-10T06:17:20;26.30;;;9.85;;
41653;SDS011;68687;52.030;7.110;2024-01-10T06:19:46;27.50;;;10.23;;
41653;SDS011;68687;52.030;7.110;2024-01-10T06:22:11;21.35;;;9.25;;
41653;SDS011;68687;52.030;7.110;2024-01-10T06:27:20;20.37;;;7.10;;
41653;SDS011;68687;52.030;7.110;2024-01-10T06:29:46;27.35;;;10.18;;
41653;SDS011;68687;52.030;7.110;2024-01-10T06:32:11;24.92;;;9.50;;
41653;SDS011;68687;52.030;7.110;2024-01-10T06:34:36;21.15;;;10.13;;
41653;SDS011;68687;52.030;7.110;2024-01-10T06:37:02;23.95;;;11.00;;
41653;SDS011;68687;52.030;7.110;2024-01-10T06:39:27;21.13;;;9.05;;
41653;SDS011;68687;52.030;7.110;2024-01-10T06:41:53;26.42;;;9.27;;
41653;SDS011;68687;52.030;7.110;2024-01-10T06:44:18;25.67;;;10.68;;
41653;SDS011;68687;52.030;7.110;2024-01-10T06:46:44;20.98;;;9.93;;
41653;SDS011;68687;52.030;7.110;2024-01-10T06:49:10;26.23;;;10.48;;
41653;SDS011;68687;52.030;7.110;2024-01-10T06:51:35;24.63;;;10.02;;
41653;SDS011;68687;52.030;7.110;2024-01-10T06:54:00;28.33;;;10.73;;
41653;SDS011;68687;52.030;7.110;2024-01-10T06:56:31;27.48;;;10.23;;
41653;SDS011;68687;52.030;7.110;2024-01-10T06:58:58;28.70;;;11.07;;
41653;SDS011;68687;52.030;7.110;2024-01-10T07:01:24;27.27;;;10.43;;
41653;SDS011;68687;52.030;7.110;2024-01-10T07:03:49;25.80;;;10.48;;
41653;SDS011;68687;52.030;7.110;2024-01-10T07:06:16;26.67;;;9.95;;
41653;SDS011;68687;52.030;7.110;2024-01-10T07:08:41;24.33;;;11.02;;
41653;SDS011;68687;52.030;7.110;2024-01-10T07:11:08;27.88;;;10.73;;
41653;SDS011;68687;52.030;7.110;2024-01-10T07:13:33;23.05;;;9.88;;
41653;SDS011;68687;52.030;7.110;2024-01-10T07:15:59;26.95;;;11.40;;
41653;SDS011;68687;52.030;7.110;2024-01-10T07:18:30;25.15;;;10.20;;
41653;SDS011;68687;52.030;7.110;2024-01-10T07:20:58;27.70;;;10.45;;
41653;SDS011;68687;52.030;7.110;2024-01-10T07:23:23;26.80;;;11.52;;
41653;SDS011;68687;52.030;7.110;2024-01-10T07:25:52;27.30;;;10.07;;
41653;SDS011;68687;52.030;7.110;2024-01-10T07:28:17;29.23;;;11.95;;
41653;SDS011;68687;52.030;7.110;2024-01-10T07:30:44;25.70;;;11.40;;
41653;SDS011;68687;52.030;7.110;2024-01-10T07:33:10;24.63;;;10.10;;
41653;SDS011;68687;52.030;7.110;2024-01-10T07:35:39;26.27;;;10.98;;
41653;SDS011;68687;52.030;7.110;2024-01-10T07:38:04;27.20;;;11.20;;
41653;SDS011;68687;52.030;7.110;2024-01-10T07:40:32;24.10;;;10.07;;
41653;SDS011;68687;52.030;7.110;2024-01-10T07:42:58;27.95;;;12.18;;
41653;SDS011;68687;52.030;7.110;2024-01-10T07:45:23;32.08;;;12.38;;
41653;SDS011;68687;52.030;7.110;2024-01-10T07:47:48;30.05;;;13.60;;
41653;SDS011;68687;52.030;7.110;2024-01-10T07:53:35;31.98;;;12.13;;
41653;SDS011;68687;52.030;7.110;2024-01-10T07:56:01;25.70;;;11.20;;
41653;SDS011;68687;52.030;7.110;2024-01-10T07:58:26;24.63;;;10.75;;
41653;SDS011;68687;52.030;7.110;2024-01-10T08:00:52;36.72;;;12.75;;
41653;SDS011;68687;52.030;7.110;2024-01-10T08:03:19;29.17;;;11.82;;
41653;SDS011;68687;52.030;7.110;2024-01-10T08:05:44;29.95;;;11.63;;
41653;SDS011;68687;52.030;7.110;2024-01-10T08:08:09;26.60;;;11.60;;
41653;SDS011;68687;52.030;7.110;2024-01-10T08:10:38;27.92;;;11.88;;
41653;SDS011;68687;52.030;7.110;2024-01-10T08:13:03;29.92;;;12.32;;
41653;SDS011;68687;52.030;7.110;2024-01-10T08:15:28;28.52;;;12.00;;
41653;SDS011;68687;52.030;7.110;2024-01-10T08:17:58;32.42;;;12.75;;
41653;SDS011;68687;52.030;7.110;2024-01-10T08:20:26;32.05;;;12.10;;
41653;SDS011;68687;52.030;7.110;2024-01-10T08:22:52;39.63;;;13.85;;
41653;SDS011;68687;52.030;7.110;2024-01-10T08:25:21;31.67;;;12.45;;
41653;SDS011;68687;52.030;7.110;2024-01-10T08:27:50;31.55;;;12.20;;
41653;SDS011;68687;52.030;7.110;2024-01-10T08:30:18;27.30;;;11.65;;
41653;SDS011;68687;52.030;7.110;2024-01-10T08:32:44;28.30;;;11.82;;
41653;SDS011;68687;52.030;7.110;2024-01-10T08:35:15;41.15;;;16.20;;
41653;SDS011;68687;52.030;7.110;2024-01-10T08:37:41;32.05;;;12.40;;
41653;SDS011;68687;52.030;7.110;2024-01-10T08:40:12;31.08;;;11.65;;
41653;SDS011;68687;52.030;7.110;2024-01-10T08:42:43;33.40;;;12.63;;
41653;SDS011;68687;52.030;7.110;2024-01-10T08:45:08;31.98;;;12.07;;
41653;SDS011;68687;52.030;7.110;2024-01-10T08:47:36;29.00;;;11.35;;
41653;SDS011;68687;52.030;7.110;2024-01-10T08:50:05;30.25;;;11.35;;
41653;SDS011;68687;52.030;7.110;2024-01-10T08:52:33;31.35;;;12.40;;
41653;SDS011;68687;52.030;7.110;2024-01-10T08:54:59;34.80;;;13.88;;
41653;SDS011;68687;52.030;7.110;2024-01-10T08:57:24;32.45;;;12.70;;
41653;SDS011;68687;52.030;7.110;2024-01-10T08:59:52;24.17;;;12.02;;
41653;SDS011;68687;52.030;7.110;2024-01-10T09:02:21;31.10;;;12.70;;
41653;SDS011;68687;52.030;7.110;2024-01-10T09:04:48;28.25;;;12.00;;
41653;SDS011;68687;52.030;7.110;2024-01-10T09:07:13;27.98;;;11.40;;
41653;SDS011;68687;52.030;7.110;2024-01-10T09:09:38;33.10;;;12.95;;
41653;SDS011;68687;52.030;7.110;2024-01-10T09:12:04;31.20;;;13.57;;
41653;SDS011;68687;52.030;7.110;2024-01-10T09:14:30;31.73;;;12.50;;
41653;SDS011;68687;52.030;7.110;2024-01-10T09:16:58;41.55;;;15.10;;
41653;SDS011;68687;52.030;7.110;2024-01-10T09:19:27;33.30;;;13.20;;
41653;SDS011;68687;52.030;7.110;2024-01-10T09:21:52;30.05;;;11.27;;
41653;SDS011;68687;52.030;7.110;2024-01-10T09:24:17;33.75;;;12.43;;
41653;SDS011;68687;52.030;7.110;2024-01-10T09:26:43;31.35;;;12.68;;
41653;SDS011;68687;52.030;7.110;2024-01-10T09:29:09;26.88;;;12.45;;
41653;SDS011;68687;52.030;7.110;2024-01-10T09:31:34;32.55;;;13.43;;
41653;SDS011;68687;52.030;7.110;2024-01-10T09:33:59;27.95;;;12.10;;
41653;SDS011;68687;52.030;7.110;2024-01-10T09:36:24;31.88;;;12.90;;
41653;SDS011;68687;52.030;7.110;2024-01-10T09:38:50;25.35;;;12.43;;
41653;SDS011;68687;52.030;7.110;2024-01-10T09:41:15;30.83;;;13.13;;
41653;SDS011;68687;52.030;7.110;2024-01-10T09:43:41;32.45;;;14.32;;
41653;SDS011;68687;52.030;7.110;2024-01-10T09:49:22;25.83;;;11.27;;
41653;SDS011;68687;52.030;7.110;2024-01-10T09:51:48;36.92;;;16.38;;
41653;SDS011;68687;52.030;7.110;2024-01-10T09:54:14;29.08;;;12.85;;
41653;SDS011;68687;52.030;7.110;2024-01-10T10:00:02;27.27;;;13.07;;
41653;SDS011;68687;52.030;7.110;2024-01-10T10:02:30;30.05;;;13.02;;
41653;SDS011;68687;52.030;7.110;2024-01-10T10:05:00;32.00;;;12.98;;
41653;SDS011;68687;52.030;7.110;2024-01-10T10:07:29;27.20;;;11.88;;
41653;SDS011;68687;52.030;7.110;2024-01-10T10:09:54;30.85;;;12.35;;
41653;SDS011;68687;52.030;7.110;2024-01-10T10:12:21;31.48;;;13.43;;
41653;SDS011;68687;52.030;7.110;2024-01-10T10:14:47;32.50;;;12.95;;
41653;SDS011;68687;52.030;7.110;2024-01-10T10:17:13;31.42;;;13.13;;
41653;SDS011;68687;52.030;7.110;2024-01-10T10:19:40;35.55;;;13.38;;
41653;SDS011;68687;52.030;7.110;2024-01-10T10:22:08;31.33;;;14.02;;
41653;SDS011;68687;52.030;7.110;2024-01-10T10:24:34;31.10;;;12.40;;
41653;SDS011;68687;52.030;7.110;2024-01-10T10:37:00;28.42;;;13.45;;
41653;SDS011;68687;52.030;7.110;2024-01-10T10:39:26;28.48;;;13.18;;
41653;SDS011;68687;52.030;7.110;2024-01-10T10:41:52;31.05;;;13.30;;
41653;SDS011;68687;52.030;7.110;2024-01-10T10:44:19;35.75;;;13.82;;
41653;SDS011;68687;52.030;7.110;2024-01-10T10:46:54;27.23;;;13.48;;
41653;SDS011;68687;52.030;7.110;2024-01-10T10:49:28;28.60;;;13.93;;
41653;SDS011;68687;52.030;7.110;2024-01-10T10:51:57;32.70;;;13.00;;
41653;SDS011;68687;52.030;7.110;2024-01-10T10:54:25;27.48;;;13.13;;
41653;SDS011;68687;52.030;7.110;2024-01-10T10:56:57;30.40;;;13.10;;
41653;SDS011;68687;52.030;7.110;2024-01-10T10:59:26;31.80;;;12.73;;
41653;SDS011;68687;52.030;7.110;2024-01-10T11:01:55;33.70;;;13.02;;
41653;SDS011;68687;52.030;7.110;2024-01-10T11:04:21;26.45;;;12.95;;
41653;SDS011;68687;52.030;7.110;2024-01-10T11:06:52;30.15;;;13.07;;
41653;SDS011;68687;52.030;7.110;2024-01-10T11:09:26;45.17;;;13.73;;
41653;SDS011;68687;52.030;7.110;2024-01-10T11:14:38;31.00;;;13.13;;
41653;SDS011;68687;52.030;7.110;2024-01-10T11:26:02;32.95;;;13.75;;
41653;SDS011;68687;52.030;7.110;2024-01-10T11:28:30;31.58;;;14.02;;
41653;SDS011;68687;52.030;7.110;2024-01-10T11:30:56;30.67;;;13.18;;
41653;SDS011;68687;52.030;7.110;2024-01-10T11:36:32;40.78;;;16.80;;
41653;SDS011;68687;52.030;7.110;2024-01-10T11:41:21;42.33;;;18.25;;
41653;SDS011;68687;52.030;7.110;2024-01-10T11:46:33;35.97;;;15.48;;
41653;SDS011;68687;52.030;7.110;2024-01-10T11:48:59;36.03;;;15.35;;
41653;SDS011;68687;52.030;7.110;2024-01-10T11:57:22;38.05;;;14.60;;
41653;SDS011;68687;52.030;7.110;2024-01-10T11:59:52;32.65;;;12.57;;
41653;SDS011;68687;52.030;7.110;2024-01-10T12:02:22;31.20;;;14.32;;
41653;SDS011;68687;52.030;7.110;2024-01-10T12:04:52;29.55;;;12.90;;
41653;SDS011;68687;52.030;7.110;2024-01-10T12:07:18;33.40;;;14.38;;
41653;SDS011;68687;52.030;7.110;2024-01-10T12:09:44;29.63;;;14.18;;
41653;SDS011;68687;52.030;7.110;2024-01-10T12:18:07;32.63;;;13.65;;
41653;SDS011;68687;52.030;7.110;2024-01-10T12:20:32;29.27;;;12.65;;
41653;SDS011;68687;52.030;7.110;2024-01-10T12:22:57;31.77;;;13.10;;
41653;SDS011;68687;52.030;7.110;2024-01-10T12:25:22;26.15;;;12.75;;
41653;SDS011;68687;52.030;7.110;2024-01-10T12:27:48;49.90;;;20.50;;
41653;SDS011;68687;52.030;7.110;2024-01-10T12:30:16;26.27;;;13.70;;
41653;SDS011;68687;52.030;7.110;2024-01-10T12:32:42;36.58;;;13.68;;
41653;SDS011;68687;52.030;7.110;2024-01-10T12:35:08;30.90;;;12.88;;
41653;SDS011;68687;52.030;7.110;2024-01-10T12:37:33;28.38;;;12.20;;
41653;SDS011;68687;52.030;7.110;2024-01-10T12:39:58;30.38;;;14.60;;
41653;SDS011;68687;52.030;7.110;2024-01-10T12:42:24;29.02;;;12.15;;
41653;SDS011;68687;52.030;7.110;2024-01-10T12:44:49;29.95;;;12.60;;
41653;SDS011;68687;52.030;7.110;2024-01-10T12:47:21;30.67;;;13.88;;
41653;SDS011;68687;52.030;7.110;2024-01-10T12:49:49;29.95;;;13.85;;
41653;SDS011;68687;52.030;7.110;2024-01-10T12:52:18;26.42;;;12.38;;
41653;SDS011;68687;52.030;7.110;2024-01-10T12:54:46;31.75;;;13.70;;
41653;SDS011;68687;52.030;7.110;2024-01-10T12:57:12;34.97;;;13.63;;
41653;SDS011;68687;52.030;7.110;2024-01-10T12:59:37;31.38;;;13.25;;
41653;SDS011;68687;52.030;7.110;2024-01-10T13:02:03;35.97;;;12.85;;
41653;SDS011;68687;52.030;7.110;2024-01-10T13:04:28;28.50;;;13.35;;
41653;SDS011;68687;52.030;7.110;2024-01-10T13:06:53;29.25;;;13.18;;
41653;SDS011;68687;52.030;7.110;2024-01-10T13:09:19;37.03;;;14.10;;
41653;SDS011;68687;52.030;7.110;2024-01-10T13:11:44;32.78;;;12.80;;
41653;SDS011;68687;52.030;7.110;2024-01-10T13:14:10;29.52;;;13.07;;
41653;SDS011;68687;52.030;7.110;2024-01-10T13:16:36;27.63;;;12.73;;
41653;SDS011;68687;52.030;7.110;2024-01-10T13:19:01;31.13;;;12.70;;
41653;SDS011;68687;52.030;7.110;2024-01-10T13:21:26;25.23;;;12.45;;
41653;SDS011;68687;52.030;7.110;2024-01-10T13:23:52;36.40;;;13.25;;
41653;SDS011;68687;52.030;7.110;2024-01-10T13:33:01;27.38;;;12.60;;
41653;SDS011;68687;52.030;7.110;2024-01-10T13:35:29;31.63;;;12.20;;
41653;SDS011;68687;52.030;7.110;2024-01-10T13:37:55;26.17;;;12.52;;
41653;SDS011;68687;52.030;7.110;2024-01-10T13:40:26;25.88;;;12.55;;
41653;SDS011;68687;52.030;7.110;2024-01-10T13:42:55;30.75;;;13.48;;
41653;SDS011;68687;52.030;7.110;2024-01-10T13:45:20;23.48;;;12.50;;
41653;SDS011;68687;52.030;7.110;2024-01-10T13:47:49;30.90;;;13.45;;
41653;SDS011;68687;52.030;7.110;2024-01-10T13:50:14;28.58;;;12.98;;
41653;SDS011;68687;52.030;7.110;2024-01-10T13:52:43;28.33;;;12.63;;
41653;SDS011;68687;52.030;7.110;2024-01-10T13:55:08;31.45;;;13.52;;
41653;SDS011;68687;52.030;7.110;2024-01-10T14:03:45;32.58;;;13.38;;
41653;SDS011;68687;52.030;7.110;2024-01-10T14:06:10;28.33;;;13.18;;
41653;SDS011;68687;52.030;7.110;2024-01-10T14:08:35;33.95;;;14.73;;
41653;SDS011;68687;52.030;7.110;2024-01-10T14:11:02;34.30;;;14.77;;
41653;SDS011;68687;52.030;7.110;2024-01-10T14:13:30;28.63;;;13.32;;
41653;SDS011;68687;52.030;7.110;2024-01-10T14:15:58;36.35;;;15.23;;
41653;SDS011;68687;52.030;7.110;2024-01-10T14:18:23;28.73;;;13.57;;
41653;SDS011;68687;52.030;7.110;2024-01-10T14:20:49;37.63;;;13.52;;
41653;SDS011;68687;52.030;7.110;2024-01-10T14:23:14;27.95;;;13.68;;
41653;SDS011;68687;52.030;7.110;2024-01-10T14:25:42;33.03;;;14.77;;
41653;SDS011;68687;52.030;7.110;2024-01-10T14:28:13;31.17;;;13.55;;
41653;SDS011;68687;52.030;7.110;2024-01-10T14:30:39;34.47;;;14.65;;
41653;SDS011;68687;52.030;7.110;2024-01-10T14:33:05;31.80;;;14.02;;
41653;SDS011;68687;52.030;7.110;2024-01-10T14:35:31;31.60;;;14.30;;
41653;SDS011;68687;52.030;7.110;2024-01-10T14:37:56;35.88;;;14.35;;
41653;SDS011;68687;52.030;7.110;2024-01-10T14:40:21;30.45;;;14.30;;
41653;SDS011;68687;52.030;7.110;2024-01-10T14:42:48;37.67;;;16.58;;
41653;SDS011;68687;52.030;7.110;2024-01-10T14:45:14;38.70;;;16.35;;
41653;SDS011;68687;52.030;7.110;2024-01-10T14:47:39;32.10;;;14.20;;
41653;SDS011;68687;52.030;7.110;2024-01-10T14:50:05;30.42;;;13.65;;
41653;SDS011;68687;52.030;7.110;2024-01-10T14:52:31;36.55;;;15.95;;
41653;SDS011;68687;52.030;7.110;2024-01-10T14:54:57;39.55;;;17.08;;
41653;SDS011;68687;52.030;7.110;2024-01-10T14:57:23;34.38;;;16.10;;
41653;SDS011;68687;52.030;7.110;2024-01-10T14:59:51;32.95;;;15.10;;
41653;SDS011;68687;52.030;7.110;2024-01-10T15:02:16;38.33;;;15.93;;
41653;SDS011;68687;52.030;7.110;2024-01-10T15:04:43;37.58;;;15.77;;
41653;SDS011;68687;52.030;7.110;2024-01-10T15:07:10;41.47;;;17.02;;
41653;SDS011;68687;52.030;7.110;2024-01-10T15:09:35;34.67;;;15.23;;
41653;SDS011;68687;52.030;7.110;2024-01-10T15:12:01;40.15;;;15.85;;
41653;SDS011;68687;52.030;7.110;2024-01-10T15:14:31;36.50;;;14.95;;
41653;SDS011;68687;52.030;7.110;2024-01-10T15:16:56;39.55;;;17.10;;
41653;SDS011;68687;52.030;7.110;2024-01-10T15:19:23;36.30;;;16.80;;
41653;SDS011;68687;52.030;7.110;2024-01-10T15:21:48;39.65;;;15.93;;
41653;SDS011;68687;52.030;7.110;2024-01-10T15:24:14;39.72;;;15.88;;
41653;SDS011;68687;52.030;7.110;2024-01-10T15:26:42;43.17;;;18.67;;
41653;SDS011;68687;52.030;7.110;2024-01-10T15:29:07;46.20;;;18.13;;
41653;SDS011;68687;52.030;7.110;2024-01-10T15:31:33;41.40;;;17.63;;
41653;SDS011;68687;52.030;7.110;2024-01-10T15:34:00;42.75;;;16.77;;